sensor_id;sensor_type;location;lat;lon;timestamp;temperature;humidity
8402;DHT22;4238;48.404;9.498;2023-01-01T00:02:05;11.00;59.70
8402;DHT22;4238;48.404;9.498;2023-01-01T00:04:32;10.90;59.30
8402;DHT22;4238;48.404;9.498;2023-01-01T00:07:01;10.80;62.70
8402;DHT22;4238;48.404;9.498;2023-01-01T00:09:28;10.60;66.20
8402;DHT22;4238;48.404;9.498;2023-01-01T00:12:12;10.40;81.20
8402;DHT22;4238;48.404;9.498;2023-01-01T00:14:39;10.40;87.20
8402;DHT22;4238;48.404;9.498;2023-01-01T00:17:09;10.40;85.90
8402;DHT22;4238;48.404;9.498;2023-01-01T00:19:35;10.30;90.10
8402;DHT22;4238;48.404;9.498;2023-01-01T00:22:04;10.30;91.10
8402;DHT22;4238;48.404;9.498;2023-01-01T00:24:31;10.30;90.00
8402;DHT22;4238;48.404;9.498;2023-01-01T00:26:57;10.40;86.10
8402;DHT22;4238;48.404;9.498;2023-01-01T00:29:24;10.50;83.40
8402;DHT22;4238;48.404;9.498;2023-01-01T00:31:51;10.50;82.10
8402;DHT22;4238;48.404;9.498;2023-01-01T00:34:18;10.50;81.60
8402;DHT22;4238;48.404;9.498;2023-01-01T00:36:45;10.50;80.60
8402;DHT22;4238;48.404;9.498;2023-01-01T00:39:13;10.50;80.30
8402;DHT22;4238;48.404;9.498;2023-01-01T00:41:40;10.50;75.90
8402;DHT22;4238;48.404;9.498;2023-01-01T00:44:07;10.50;74.60
8402;DHT22;4238;48.404;9.498;2023-01-01T00:46:34;10.60;73.60
8402;DHT22;4238;48.404;9.498;2023-01-01T00:49:01;10.70;71.40
8402;DHT22;4238;48.404;9.498;2023-01-01T00:51:28;10.80;69.30
8402;DHT22;4238;48.404;9.498;2023-01-01T00:53:55;10.80;68.90
8402;DHT22;4238;48.404;9.498;2023-01-01T00:56:24;10.80;68.70
8402;DHT22;4238;48.404;9.498;2023-01-01T00:58:51;10.80;65.60
8402;DHT22;4238;48.404;9.498;2023-01-01T01:01:18;10.80;60.50
8402;DHT22;4238;48.404;9.498;2023-01-01T01:03:44;10.90;58.90
8402;DHT22;4238;48.404;9.498;2023-01-01T01:06:13;10.90;54.90
8402;DHT22;4238;48.404;9.498;2023-01-01T01:08:42;11.00;51.00
8402;DHT22;4238;48.404;9.498;2023-01-01T01:11:11;11.00;50.80
8402;DHT22;4238;48.404;9.498;2023-01-01T01:13:41;11.00;50.40
8402;DHT22;4238;48.404;9.498;2023-01-01T01:16:09;11.00;51.70
8402;DHT22;4238;48.404;9.498;2023-01-01T01:18:41;11.00;51.00
8402;DHT22;4238;48.404;9.498;2023-01-01T01:21:08;11.00;50.50
8402;DHT22;4238;48.404;9.498;2023-01-01T01:23:36;11.00;54.30
8402;DHT22;4238;48.404;9.498;2023-01-01T01:26:07;10.90;58.10
8402;DHT22;4238;48.404;9.498;2023-01-01T01:28:34;10.80;61.90
8402;DHT22;4238;48.404;9.498;2023-01-01T01:31:02;10.80;65.80
8402;DHT22;4238;48.404;9.498;2023-01-01T01:33:29;10.70;68.90
8402;DHT22;4238;48.404;9.498;2023-01-01T01:35:56;10.70;71.70
8402;DHT22;4238;48.404;9.498;2023-01-01T01:38:23;10.60;75.90
8402;DHT22;4238;48.404;9.498;2023-01-01T01:40:50;10.60;77.20
8402;DHT22;4238;48.404;9.498;2023-01-01T01:43:21;10.60;80.80
8402;DHT22;4238;48.404;9.498;2023-01-01T01:45:50;10.50;85.90
8402;DHT22;4238;48.404;9.498;2023-01-01T01:48:22;10.50;87.90
8402;DHT22;4238;48.404;9.498;2023-01-01T01:50:50;10.50;89.90
8402;DHT22;4238;48.404;9.498;2023-01-01T01:53:23;10.50;90.70
8402;DHT22;4238;48.404;9.498;2023-01-01T01:55:53;10.50;91.10
8402;DHT22;4238;48.404;9.498;2023-01-01T01:58:23;10.40;92.40
8402;DHT22;4238;48.404;9.498;2023-01-01T02:00:50;10.40;92.30
8402;DHT22;4238;48.404;9.498;2023-01-01T02:03:21;10.30;93.20
8402;DHT22;4238;48.404;9.498;2023-01-01T02:05:49;10.30;93.90
8402;DHT22;4238;48.404;9.498;2023-01-01T02:08:17;10.40;93.30
8402;DHT22;4238;48.404;9.498;2023-01-01T02:10:45;10.30;93.80
8402;DHT22;4238;48.404;9.498;2023-01-01T02:13:12;10.30;93.60
8402;DHT22;4238;48.404;9.498;2023-01-01T02:15:46;10.30;93.90
8402;DHT22;4238;48.404;9.498;2023-01-01T02:18:17;10.30;93.20
8402;DHT22;4238;48.404;9.498;2023-01-01T02:20:51;10.30;92.00
8402;DHT22;4238;48.404;9.498;2023-01-01T02:23:41;10.40;91.80
8402;DHT22;4238;48.404;9.498;2023-01-01T02:26:31;10.50;91.00
8402;DHT22;4238;48.404;9.498;2023-01-01T02:29:16;10.40;90.40
8402;DHT22;4238;48.404;9.498;2023-01-01T02:31:48;10.50;89.40
8402;DHT22;4238;48.404;9.498;2023-01-01T02:34:20;10.50;87.10
8402;DHT22;4238;48.404;9.498;2023-01-01T02:36:50;10.50;84.30
8402;DHT22;4238;48.404;9.498;2023-01-01T02:39:23;10.50;85.70
8402;DHT22;4238;48.404;9.498;2023-01-01T02:41:53;10.50;85.90
8402;DHT22;4238;48.404;9.498;2023-01-01T02:44:25;10.50;85.00
8402;DHT22;4238;48.404;9.498;2023-01-01T02:46:52;10.50;84.50
8402;DHT22;4238;48.404;9.498;2023-01-01T02:49:19;10.50;87.70
8402;DHT22;4238;48.404;9.498;2023-01-01T02:52:01;10.40;87.80
8402;DHT22;4238;48.404;9.498;2023-01-01T02:54:35;10.40;90.10
8402;DHT22;4238;48.404;9.498;2023-01-01T02:57:08;10.40;90.90
8402;DHT22;4238;48.404;9.498;2023-01-01T02:59:48;10.30;91.80
8402;DHT22;4238;48.404;9.498;2023-01-01T03:02:44;10.30;90.40
8402;DHT22;4238;48.404;9.498;2023-01-01T03:05:18;10.30;90.50
8402;DHT22;4238;48.404;9.498;2023-01-01T03:07:58;10.20;89.60
8402;DHT22;4238;48.404;9.498;2023-01-01T03:10:32;10.10;86.60
8402;DHT22;4238;48.404;9.498;2023-01-01T03:13:08;9.80;90.10
8402;DHT22;4238;48.404;9.498;2023-01-01T03:15:43;9.60;93.50
8402;DHT22;4238;48.404;9.498;2023-01-01T03:18:16;9.40;94.70
8402;DHT22;4238;48.404;9.498;2023-01-01T03:20:46;9.30;98.60
8402;DHT22;4238;48.404;9.498;2023-01-01T03:23:17;9.20;99.90
8402;DHT22;4238;48.404;9.498;2023-01-01T03:25:48;9.30;99.90
8402;DHT22;4238;48.404;9.498;2023-01-01T03:28:17;9.40;99.90
8402;DHT22;4238;48.404;9.498;2023-01-01T03:30:48;9.50;99.90
8402;DHT22;4238;48.404;9.498;2023-01-01T03:33:19;9.60;99.90
8402;DHT22;4238;48.404;9.498;2023-01-01T03:35:49;9.70;99.90
8402;DHT22;4238;48.404;9.498;2023-01-01T03:38:21;9.80;99.90
8402;DHT22;4238;48.404;9.498;2023-01-01T03:40:58;9.80;99.90
8402;DHT22;4238;48.404;9.498;2023-01-01T03:43:34;9.80;99.90
8402;DHT22;4238;48.404;9.498;2023-01-01T03:46:07;9.80;99.90
8402;DHT22;4238;48.404;9.498;2023-01-01T03:48:34;9.80;99.90
8402;DHT22;4238;48.404;9.498;2023-01-01T03:51:19;9.80;99.90
8402;DHT22;4238;48.404;9.498;2023-01-01T03:53:51;9.80;99.90
8402;DHT22;4238;48.404;9.498;2023-01-01T03:56:25;9.80;99.90
8402;DHT22;4238;48.404;9.498;2023-01-01T03:59:04;9.80;99.90
8402;DHT22;4238;48.404;9.498;2023-01-01T04:01:37;9.80;99.90
8402;DHT22;4238;48.404;9.498;2023-01-01T04:04:06;9.70;99.90
8402;DHT22;4238;48.404;9.498;2023-01-01T04:06:33;9.70;99.90
8402;DHT22;4238;48.404;9.498;2023-01-01T04:09:02;9.70;99.90
8402;DHT22;4238;48.404;9.498;2023-01-01T04:11:31;9.70;99.90
8402;DHT22;4238;48.404;9.498;2023-01-01T04:14:26;9.60;99.90
8402;DHT22;4238;48.404;9.498;2023-01-01T04:16:55;9.70;99.90
8402;DHT22;4238;48.404;9.498;2023-01-01T04:19:22;9.60;99.90
8402;DHT22;4238;48.404;9.498;2023-01-01T04:21:49;9.50;99.90
8402;DHT22;4238;48.404;9.498;2023-01-01T04:24:16;9.50;99.90
8402;DHT22;4238;48.404;9.498;2023-01-01T04:26:43;9.50;99.90
8402;DHT22;4238;48.404;9.498;2023-01-01T04:29:10;9.40;99.90
8402;DHT22;4238;48.404;9.498;2023-01-01T04:31:37;9.40;99.90
8402;DHT22;4238;48.404;9.498;2023-01-01T04:34:05;9.40;99.90
8402;DHT22;4238;48.404;9.498;2023-01-01T04:36:32;9.40;99.90
8402;DHT22;4238;48.404;9.498;2023-01-01T04:39:00;9.40;99.90
8402;DHT22;4238;48.404;9.498;2023-01-01T04:41:27;9.40;99.90
8402;DHT22;4238;48.404;9.498;2023-01-01T04:43:54;9.40;99.90
8402;DHT22;4238;48.404;9.498;2023-01-01T04:46:21;9.40;99.90
8402;DHT22;4238;48.404;9.498;2023-01-01T04:48:49;9.50;99.90
8402;DHT22;4238;48.404;9.498;2023-01-01T04:51:19;9.40;99.90
8402;DHT22;4238;48.404;9.498;2023-01-01T04:53:46;9.50;99.90
8402;DHT22;4238;48.404;9.498;2023-01-01T04:56:15;9.40;99.90
8402;DHT22;4238;48.404;9.498;2023-01-01T04:58:43;9.40;99.90
8402;DHT22;4238;48.404;9.498;2023-01-01T05:01:15;9.40;99.90
8402;DHT22;4238;48.404;9.498;2023-01-01T05:03:42;9.30;99.90
8402;DHT22;4238;48.404;9.498;2023-01-01T05:06:10;9.30;99.90
8402;DHT22;4238;48.404;9.498;2023-01-01T05:08:41;9.30;99.90
8402;DHT22;4238;48.404;9.498;2023-01-01T05:11:09;9.30;99.90
8402;DHT22;4238;48.404;9.498;2023-01-01T05:13:38;9.30;99.90
8402;DHT22;4238;48.404;9.498;2023-01-01T05:16:07;9.30;99.90
8402;DHT22;4238;48.404;9.498;2023-01-01T05:18:34;9.30;99.90
8402;DHT22;4238;48.404;9.498;2023-01-01T05:21:02;9.20;99.90
8402;DHT22;4238;48.404;9.498;2023-01-01T05:23:30;9.10;99.90
8402;DHT22;4238;48.404;9.498;2023-01-01T05:25:58;9.10;99.90
8402;DHT22;4238;48.404;9.498;2023-01-01T05:28:25;9.00;99.90
8402;DHT22;4238;48.404;9.498;2023-01-01T05:30:53;8.90;99.90
8402;DHT22;4238;48.404;9.498;2023-01-01T05:33:20;8.80;99.90
8402;DHT22;4238;48.404;9.498;2023-01-01T05:35:52;8.80;99.90
8402;DHT22;4238;48.404;9.498;2023-01-01T05:38:20;8.70;99.90
8402;DHT22;4238;48.404;9.498;2023-01-01T05:40:46;8.70;99.90
8402;DHT22;4238;48.404;9.498;2023-01-01T05:43:16;8.70;99.90
8402;DHT22;4238;48.404;9.498;2023-01-01T05:45:44;8.80;99.90
8402;DHT22;4238;48.404;9.498;2023-01-01T05:48:11;8.80;99.90
8402;DHT22;4238;48.404;9.498;2023-01-01T05:50:37;8.80;99.90
8402;DHT22;4238;48.404;9.498;2023-01-01T05:53:04;8.80;99.90
8402;DHT22;4238;48.404;9.498;2023-01-01T05:55:31;8.80;99.90
8402;DHT22;4238;48.404;9.498;2023-01-01T05:57:58;8.80;99.90
8402;DHT22;4238;48.404;9.498;2023-01-01T06:00:26;8.90;99.90
8402;DHT22;4238;48.404;9.498;2023-01-01T06:02:53;8.90;99.90
8402;DHT22;4238;48.404;9.498;2023-01-01T06:05:20;8.90;99.90
8402;DHT22;4238;48.404;9.498;2023-01-01T06:07:47;8.90;99.90
8402;DHT22;4238;48.404;9.498;2023-01-01T06:10:14;8.90;99.90
8402;DHT22;4238;48.404;9.498;2023-01-01T06:12:41;9.00;99.90
8402;DHT22;4238;48.404;9.498;2023-01-01T06:15:08;9.10;99.90
8402;DHT22;4238;48.404;9.498;2023-01-01T06:17:36;9.20;99.90
8402;DHT22;4238;48.404;9.498;2023-01-01T06:20:04;9.20;99.90
8402;DHT22;4238;48.404;9.498;2023-01-01T06:22:34;9.30;99.90
8402;DHT22;4238;48.404;9.498;2023-01-01T06:25:01;9.30;99.90
8402;DHT22;4238;48.404;9.498;2023-01-01T06:27:28;9.40;99.90
8402;DHT22;4238;48.404;9.498;2023-01-01T06:29:55;9.40;99.90
8402;DHT22;4238;48.404;9.498;2023-01-01T06:32:22;9.40;99.90
8402;DHT22;4238;48.404;9.498;2023-01-01T06:34:50;9.40;99.90
8402;DHT22;4238;48.404;9.498;2023-01-01T06:37:17;9.40;99.90
8402;DHT22;4238;48.404;9.498;2023-01-01T06:39:44;9.50;99.90
8402;DHT22;4238;48.404;9.498;2023-01-01T06:42:11;9.40;99.90
8402;DHT22;4238;48.404;9.498;2023-01-01T06:44:38;9.40;99.90
8402;DHT22;4238;48.404;9.498;2023-01-01T06:47:05;9.40;99.90
8402;DHT22;4238;48.404;9.498;2023-01-01T06:49:32;9.40;99.90
8402;DHT22;4238;48.404;9.498;2023-01-01T06:52:01;9.50;99.90
8402;DHT22;4238;48.404;9.498;2023-01-01T06:54:27;9.50;99.90
8402;DHT22;4238;48.404;9.498;2023-01-01T06:56:55;9.50;99.90
8402;DHT22;4238;48.404;9.498;2023-01-01T06:59:22;9.40;99.90
8402;DHT22;4238;48.404;9.498;2023-01-01T07:01:49;9.40;99.90
8402;DHT22;4238;48.404;9.498;2023-01-01T07:04:15;9.40;99.90
8402;DHT22;4238;48.404;9.498;2023-01-01T07:06:42;9.40;99.90
8402;DHT22;4238;48.404;9.498;2023-01-01T07:09:11;9.40;99.90
8402;DHT22;4238;48.404;9.498;2023-01-01T07:11:38;9.40;99.90
8402;DHT22;4238;48.404;9.498;2023-01-01T07:14:04;9.40;99.90
8402;DHT22;4238;48.404;9.498;2023-01-01T07:16:31;9.40;99.90
8402;DHT22;4238;48.404;9.498;2023-01-01T07:18:58;9.40;99.90
8402;DHT22;4238;48.404;9.498;2023-01-01T07:21:28;9.30;99.90
8402;DHT22;4238;48.404;9.498;2023-01-01T07:23:55;9.30;99.90
8402;DHT22;4238;48.404;9.498;2023-01-01T07:26:24;9.40;99.90
8402;DHT22;4238;48.404;9.498;2023-01-01T07:28:51;9.40;99.90
8402;DHT22;4238;48.404;9.498;2023-01-01T07:31:18;9.50;99.90
8402;DHT22;4238;48.404;9.498;2023-01-01T07:33:45;9.50;99.90
8402;DHT22;4238;48.404;9.498;2023-01-01T07:36:12;9.50;99.90
8402;DHT22;4238;48.404;9.498;2023-01-01T07:38:39;9.50;99.90
8402;DHT22;4238;48.404;9.498;2023-01-01T07:41:07;9.50;99.90
8402;DHT22;4238;48.404;9.498;2023-01-01T07:43:35;9.60;99.90
8402;DHT22;4238;48.404;9.498;2023-01-01T07:46:02;9.60;99.90
8402;DHT22;4238;48.404;9.498;2023-01-01T07:48:29;9.60;99.90
8402;DHT22;4238;48.404;9.498;2023-01-01T07:50:56;9.70;99.90
8402;DHT22;4238;48.404;9.498;2023-01-01T07:53:23;9.70;99.90
8402;DHT22;4238;48.404;9.498;2023-01-01T07:55:50;9.70;99.90
8402;DHT22;4238;48.404;9.498;2023-01-01T07:58:17;9.70;99.90
8402;DHT22;4238;48.404;9.498;2023-01-01T08:00:46;9.80;99.90
8402;DHT22;4238;48.404;9.498;2023-01-01T08:03:14;9.90;99.90
8402;DHT22;4238;48.404;9.498;2023-01-01T08:05:41;9.90;99.90
8402;DHT22;4238;48.404;9.498;2023-01-01T08:08:08;10.00;99.90
8402;DHT22;4238;48.404;9.498;2023-01-01T08:10:35;10.00;99.90
8402;DHT22;4238;48.404;9.498;2023-01-01T08:13:04;10.00;99.90
8402;DHT22;4238;48.404;9.498;2023-01-01T08:15:31;10.10;98.60
8402;DHT22;4238;48.404;9.498;2023-01-01T08:18:04;10.10;98.20
8402;DHT22;4238;48.404;9.498;2023-01-01T08:20:32;10.10;97.40
8402;DHT22;4238;48.404;9.498;2023-01-01T08:22:59;10.10;97.30
8402;DHT22;4238;48.404;9.498;2023-01-01T08:25:26;10.20;96.50
8402;DHT22;4238;48.404;9.498;2023-01-01T08:27:53;10.20;97.20
8402;DHT22;4238;48.404;9.498;2023-01-01T08:30:20;10.10;97.50
8402;DHT22;4238;48.404;9.498;2023-01-01T08:32:47;10.10;98.20
8402;DHT22;4238;48.404;9.498;2023-01-01T08:35:15;10.10;97.10
8402;DHT22;4238;48.404;9.498;2023-01-01T08:37:42;10.20;98.90
8402;DHT22;4238;48.404;9.498;2023-01-01T08:40:10;10.20;98.70
8402;DHT22;4238;48.404;9.498;2023-01-01T08:42:38;10.20;97.80
8402;DHT22;4238;48.404;9.498;2023-01-01T08:45:06;10.20;97.70
8402;DHT22;4238;48.404;9.498;2023-01-01T08:47:34;10.20;97.80
8402;DHT22;4238;48.404;9.498;2023-01-01T08:50:00;10.20;98.20
8402;DHT22;4238;48.404;9.498;2023-01-01T08:52:29;10.20;98.20
8402;DHT22;4238;48.404;9.498;2023-01-01T08:54:56;10.20;98.70
8402;DHT22;4238;48.404;9.498;2023-01-01T08:57:23;10.20;98.20
8402;DHT22;4238;48.404;9.498;2023-01-01T08:59:49;10.20;98.80
8402;DHT22;4238;48.404;9.498;2023-01-01T09:02:16;10.30;97.50
8402;DHT22;4238;48.404;9.498;2023-01-01T09:04:43;10.20;97.70
8402;DHT22;4238;48.404;9.498;2023-01-01T09:07:10;10.30;97.70
8402;DHT22;4238;48.404;9.498;2023-01-01T09:09:38;10.30;97.50
8402;DHT22;4238;48.404;9.498;2023-01-01T09:12:05;10.30;96.80
8402;DHT22;4238;48.404;9.498;2023-01-01T09:14:34;10.40;95.40
8402;DHT22;4238;48.404;9.498;2023-01-01T09:17:01;10.40;95.00
8402;DHT22;4238;48.404;9.498;2023-01-01T09:19:28;10.50;93.30
8402;DHT22;4238;48.404;9.498;2023-01-01T09:21:55;10.60;93.20
8402;DHT22;4238;48.404;9.498;2023-01-01T09:24:22;10.80;92.10
8402;DHT22;4238;48.404;9.498;2023-01-01T09:26:50;11.10;88.70
8402;DHT22;4238;48.404;9.498;2023-01-01T09:29:17;11.40;78.50
8402;DHT22;4238;48.404;9.498;2023-01-01T09:31:45;11.80;68.50
8402;DHT22;4238;48.404;9.498;2023-01-01T09:34:12;12.00;35.30
8402;DHT22;4238;48.404;9.498;2023-01-01T09:36:39;12.30;37.20
8402;DHT22;4238;48.404;9.498;2023-01-01T09:39:09;12.60;22.10
8402;DHT22;4238;48.404;9.498;2023-01-01T09:41:49;12.90;14.60
8402;DHT22;4238;48.404;9.498;2023-01-01T09:44:42;13.10;5.40
8402;DHT22;4238;48.404;9.498;2023-01-01T09:47:20;13.30;1.00
8402;DHT22;4238;48.404;9.498;2023-01-01T09:49:48;13.30;1.00
8402;DHT22;4238;48.404;9.498;2023-01-01T09:52:17;13.30;1.00
8402;DHT22;4238;48.404;9.498;2023-01-01T09:54:49;13.20;1.00
8402;DHT22;4238;48.404;9.498;2023-01-01T09:57:18;13.10;1.00
8402;DHT22;4238;48.404;9.498;2023-01-01T09:59:46;13.10;1.00
8402;DHT22;4238;48.404;9.498;2023-01-01T10:02:29;12.90;1.00
8402;DHT22;4238;48.404;9.498;2023-01-01T10:05:02;13.00;1.00
8402;DHT22;4238;48.404;9.498;2023-01-01T10:07:39;13.10;1.00
8402;DHT22;4238;48.404;9.498;2023-01-01T10:10:19;13.30;1.00
8402;DHT22;4238;48.404;9.498;2023-01-01T10:12:52;13.40;1.00
8402;DHT22;4238;48.404;9.498;2023-01-01T10:15:24;13.30;1.00
8402;DHT22;4238;48.404;9.498;2023-01-01T10:17:56;13.20;1.00
8402;DHT22;4238;48.404;9.498;2023-01-01T10:20:27;13.30;1.00
8402;DHT22;4238;48.404;9.498;2023-01-01T10:22:58;13.20;1.00
8402;DHT22;4238;48.404;9.498;2023-01-01T10:25:29;13.00;1.00
8402;DHT22;4238;48.404;9.498;2023-01-01T10:27:59;12.80;1.00
8402;DHT22;4238;48.404;9.498;2023-01-01T10:30:32;12.60;1.00
8402;DHT22;4238;48.404;9.498;2023-01-01T10:32:59;12.60;1.00
8402;DHT22;4238;48.404;9.498;2023-01-01T10:35:35;12.80;1.00
8402;DHT22;4238;48.404;9.498;2023-01-01T10:38:06;12.80;1.00
8402;DHT22;4238;48.404;9.498;2023-01-01T10:40:33;12.90;1.00
8402;DHT22;4238;48.404;9.498;2023-01-01T10:43:01;13.00;1.00
8402;DHT22;4238;48.404;9.498;2023-01-01T10:45:31;12.90;1.00
8402;DHT22;4238;48.404;9.498;2023-01-01T10:48:15;13.00;1.00
8402;DHT22;4238;48.404;9.498;2023-01-01T10:50:45;13.20;1.00
8402;DHT22;4238;48.404;9.498;2023-01-01T10:53:26;13.50;1.00
8402;DHT22;4238;48.404;9.498;2023-01-01T10:55:59;13.60;1.00
8402;DHT22;4238;48.404;9.498;2023-01-01T10:58:36;13.70;1.00
8402;DHT22;4238;48.404;9.498;2023-01-01T11:01:06;13.80;1.00
8402;DHT22;4238;48.404;9.498;2023-01-01T11:03:34;13.90;1.00
8402;DHT22;4238;48.404;9.498;2023-01-01T11:06:09;13.70;1.00
8402;DHT22;4238;48.404;9.498;2023-01-01T11:08:40;13.70;1.00
8402;DHT22;4238;48.404;9.498;2023-01-01T11:11:19;13.80;1.00
8402;DHT22;4238;48.404;9.498;2023-01-01T11:13:48;13.90;1.00
8402;DHT22;4238;48.404;9.498;2023-01-01T11:16:17;14.30;1.00
8402;DHT22;4238;48.404;9.498;2023-01-01T11:18:44;14.50;1.00
8402;DHT22;4238;48.404;9.498;2023-01-01T11:21:18;14.70;99.90
8402;DHT22;4238;48.404;9.498;2023-01-01T11:23:47;14.80;99.90
8402;DHT22;4238;48.404;9.498;2023-01-01T11:26:22;14.90;1.00
8402;DHT22;4238;48.404;9.498;2023-01-01T11:29:01;14.70;20.80
8402;DHT22;4238;48.404;9.498;2023-01-01T11:31:34;14.70;1.00
8402;DHT22;4238;48.404;9.498;2023-01-01T11:34:02;15.20;1.00
8402;DHT22;4238;48.404;9.498;2023-01-01T11:36:31;15.30;1.00
8402;DHT22;4238;48.404;9.498;2023-01-01T11:39:19;15.70;1.00
8402;DHT22;4238;48.404;9.498;2023-01-01T11:41:48;16.10;1.00
8402;DHT22;4238;48.404;9.498;2023-01-01T11:44:26;16.40;99.90
8402;DHT22;4238;48.404;9.498;2023-01-01T11:46:57;16.50;99.90
8402;DHT22;4238;48.404;9.498;2023-01-01T11:49:27;16.60;99.90
8402;DHT22;4238;48.404;9.498;2023-01-01T11:51:56;16.50;1.00
8402;DHT22;4238;48.404;9.498;2023-01-01T11:54:28;16.80;1.00
8402;DHT22;4238;48.404;9.498;2023-01-01T11:57:01;16.90;99.90
8402;DHT22;4238;48.404;9.498;2023-01-01T11:59:40;17.10;1.00
8402;DHT22;4238;48.404;9.498;2023-01-01T12:02:14;17.20;1.00
8402;DHT22;4238;48.404;9.498;2023-01-01T12:04:46;17.50;99.90
8402;DHT22;4238;48.404;9.498;2023-01-01T12:07:17;17.10;1.00
8402;DHT22;4238;48.404;9.498;2023-01-01T12:09:51;17.10;1.00
8402;DHT22;4238;48.404;9.498;2023-01-01T12:12:24;17.20;6.40
8402;DHT22;4238;48.404;9.498;2023-01-01T12:14:56;17.00;1.00
8402;DHT22;4238;48.404;9.498;2023-01-01T12:17:33;17.10;44.70
8402;DHT22;4238;48.404;9.498;2023-01-01T12:20:09;16.90;30.60
8402;DHT22;4238;48.404;9.498;2023-01-01T12:22:37;16.70;99.90
8402;DHT22;4238;48.404;9.498;2023-01-01T12:25:05;16.70;99.90
8402;DHT22;4238;48.404;9.498;2023-01-01T12:27:42;16.60;82.90
8402;DHT22;4238;48.404;9.498;2023-01-01T12:30:19;16.40;99.90
8402;DHT22;4238;48.404;9.498;2023-01-01T12:35:54;16.20;1.00
8402;DHT22;4238;48.404;9.498;2023-01-01T12:38:37;16.40;99.90
8402;DHT22;4238;48.404;9.498;2023-01-01T12:41:09;16.10;99.90
8402;DHT22;4238;48.404;9.498;2023-01-01T12:43:42;16.30;99.90
8402;DHT22;4238;48.404;9.498;2023-01-01T12:46:35;16.30;6.20
8402;DHT22;4238;48.404;9.498;2023-01-01T12:52:04;16.10;99.90
8402;DHT22;4238;48.404;9.498;2023-01-01T12:57:48;16.70;99.90
8402;DHT22;4238;48.404;9.498;2023-01-01T13:00:18;16.40;1.00
8402;DHT22;4238;48.404;9.498;2023-01-01T13:02:48;16.10;99.90
8402;DHT22;4238;48.404;9.498;2023-01-01T13:05:19;16.30;99.90
8402;DHT22;4238;48.404;9.498;2023-01-01T13:07:53;16.30;85.10
8402;DHT22;4238;48.404;9.498;2023-01-01T13:10:25;16.40;1.00
8402;DHT22;4238;48.404;9.498;2023-01-01T13:12:54;16.50;1.00
8402;DHT22;4238;48.404;9.498;2023-01-01T13:15:47;16.60;1.00
8402;DHT22;4238;48.404;9.498;2023-01-01T13:18:21;16.20;1.00
8402;DHT22;4238;48.404;9.498;2023-01-01T13:20:55;16.20;1.00
8402;DHT22;4238;48.404;9.498;2023-01-01T13:23:44;16.20;1.00
8402;DHT22;4238;48.404;9.498;2023-01-01T13:26:39;16.10;99.90
8402;DHT22;4238;48.404;9.498;2023-01-01T13:29:30;16.20;1.00
8402;DHT22;4238;48.404;9.498;2023-01-01T13:32:00;16.50;1.00
8402;DHT22;4238;48.404;9.498;2023-01-01T13:34:32;16.60;1.00
8402;DHT22;4238;48.404;9.498;2023-01-01T13:37:24;16.60;1.00
8402;DHT22;4238;48.404;9.498;2023-01-01T13:39:54;16.20;1.00
8402;DHT22;4238;48.404;9.498;2023-01-01T13:42:38;15.90;1.00
8402;DHT22;4238;48.404;9.498;2023-01-01T13:45:12;16.10;1.00
8402;DHT22;4238;48.404;9.498;2023-01-01T13:47:52;15.90;1.00
8402;DHT22;4238;48.404;9.498;2023-01-01T13:50:27;15.90;44.70
8402;DHT22;4238;48.404;9.498;2023-01-01T13:53:11;16.00;1.00
8402;DHT22;4238;48.404;9.498;2023-01-01T13:56:12;15.90;1.00
8402;DHT22;4238;48.404;9.498;2023-01-01T13:59:04;15.90;1.00
8402;DHT22;4238;48.404;9.498;2023-01-01T14:01:52;15.80;44.80
8402;DHT22;4238;48.404;9.498;2023-01-01T14:04:29;15.80;45.10
8402;DHT22;4238;48.404;9.498;2023-01-01T14:06:59;15.40;99.90
8402;DHT22;4238;48.404;9.498;2023-01-01T14:09:27;15.00;99.90
8402;DHT22;4238;48.404;9.498;2023-01-01T14:11:55;15.00;1.00
8402;DHT22;4238;48.404;9.498;2023-01-01T14:14:24;15.10;1.00
8402;DHT22;4238;48.404;9.498;2023-01-01T14:16:55;14.90;94.20
8402;DHT22;4238;48.404;9.498;2023-01-01T14:19:23;14.90;99.90
8402;DHT22;4238;48.404;9.498;2023-01-01T14:21:51;14.80;1.00
8402;DHT22;4238;48.404;9.498;2023-01-01T14:24:19;14.70;1.00
8402;DHT22;4238;48.404;9.498;2023-01-01T14:26:47;14.70;99.90
8402;DHT22;4238;48.404;9.498;2023-01-01T14:29:18;14.70;61.80
8402;DHT22;4238;48.404;9.498;2023-01-01T14:31:47;14.70;1.00
8402;DHT22;4238;48.404;9.498;2023-01-01T14:34:19;14.60;1.00
8402;DHT22;4238;48.404;9.498;2023-01-01T14:36:49;14.50;1.00
8402;DHT22;4238;48.404;9.498;2023-01-01T14:39:23;14.50;1.00
8402;DHT22;4238;48.404;9.498;2023-01-01T14:41:50;14.40;99.90
8402;DHT22;4238;48.404;9.498;2023-01-01T14:44:21;14.40;1.00
8402;DHT22;4238;48.404;9.498;2023-01-01T14:46:51;14.30;1.00
8402;DHT22;4238;48.404;9.498;2023-01-01T14:49:21;14.30;1.00
8402;DHT22;4238;48.404;9.498;2023-01-01T14:51:54;14.20;99.90
8402;DHT22;4238;48.404;9.498;2023-01-01T14:54:29;14.10;99.90
8402;DHT22;4238;48.404;9.498;2023-01-01T14:56:57;14.00;1.00
8402;DHT22;4238;48.404;9.498;2023-01-01T14:59:27;14.00;20.10
8402;DHT22;4238;48.404;9.498;2023-01-01T15:01:59;13.90;99.90
8402;DHT22;4238;48.404;9.498;2023-01-01T15:04:26;13.70;1.00
8402;DHT22;4238;48.404;9.498;2023-01-01T15:06:53;13.70;1.00
8402;DHT22;4238;48.404;9.498;2023-01-01T15:09:21;13.50;1.00
8402;DHT22;4238;48.404;9.498;2023-01-01T15:11:50;13.50;1.00
8402;DHT22;4238;48.404;9.498;2023-01-01T15:14:30;13.40;1.00
8402;DHT22;4238;48.404;9.498;2023-01-01T15:17:02;13.40;99.90
8402;DHT22;4238;48.404;9.498;2023-01-01T15:19:30;13.30;1.60
8402;DHT22;4238;48.404;9.498;2023-01-01T15:21:58;13.20;41.70
8402;DHT22;4238;48.404;9.498;2023-01-01T15:24:25;13.20;99.90
8402;DHT22;4238;48.404;9.498;2023-01-01T15:26:55;13.10;99.90
8402;DHT22;4238;48.404;9.498;2023-01-01T15:29:27;13.00;99.90
8402;DHT22;4238;48.404;9.498;2023-01-01T15:31:58;13.00;1.00
8402;DHT22;4238;48.404;9.498;2023-01-01T15:34:28;12.90;1.00
8402;DHT22;4238;48.404;9.498;2023-01-01T15:37:05;12.90;1.00
8402;DHT22;4238;48.404;9.498;2023-01-01T15:39:33;12.80;1.00
8402;DHT22;4238;48.404;9.498;2023-01-01T15:42:21;12.80;1.00
8402;DHT22;4238;48.404;9.498;2023-01-01T15:44:49;12.80;1.00
8402;DHT22;4238;48.404;9.498;2023-01-01T15:47:17;12.70;1.00
8402;DHT22;4238;48.404;9.498;2023-01-01T15:50:06;12.70;1.00
8402;DHT22;4238;48.404;9.498;2023-01-01T15:52:34;12.70;1.00
8402;DHT22;4238;48.404;9.498;2023-01-01T15:55:01;12.60;1.00
8402;DHT22;4238;48.404;9.498;2023-01-01T15:57:28;12.60;1.00
8402;DHT22;4238;48.404;9.498;2023-01-01T15:59:56;12.60;1.00
8402;DHT22;4238;48.404;9.498;2023-01-01T16:02:26;12.50;1.00
8402;DHT22;4238;48.404;9.498;2023-01-01T16:04:56;12.60;1.00
8402;DHT22;4238;48.404;9.498;2023-01-01T16:07:24;12.50;1.00
8402;DHT22;4238;48.404;9.498;2023-01-01T16:09:53;12.50;1.00
8402;DHT22;4238;48.404;9.498;2023-01-01T16:12:20;12.40;1.00
8402;DHT22;4238;48.404;9.498;2023-01-01T16:14:47;12.40;1.00
8402;DHT22;4238;48.404;9.498;2023-01-01T16:17:16;12.30;1.00
8402;DHT22;4238;48.404;9.498;2023-01-01T16:19:44;12.20;1.00
8402;DHT22;4238;48.404;9.498;2023-01-01T16:22:13;12.20;1.00
8402;DHT22;4238;48.404;9.498;2023-01-01T16:24:41;12.20;1.00
8402;DHT22;4238;48.404;9.498;2023-01-01T16:27:09;12.20;1.00
8402;DHT22;4238;48.404;9.498;2023-01-01T16:29:36;12.20;1.00
8402;DHT22;4238;48.404;9.498;2023-01-01T16:32:04;12.20;1.00
8402;DHT22;4238;48.404;9.498;2023-01-01T16:34:31;12.20;1.00
8402;DHT22;4238;48.404;9.498;2023-01-01T16:36:59;12.00;1.00
8402;DHT22;4238;48.404;9.498;2023-01-01T16:39:26;12.00;1.00
8402;DHT22;4238;48.404;9.498;2023-01-01T16:41:55;12.00;1.00
8402;DHT22;4238;48.404;9.498;2023-01-01T16:44:23;12.00;1.00